sensor_id;sensor_type;location;lat;lon;timestamp;P1;durP1;ratioP1;P2;durP2;ratioP2
16957;SDS011;8595;52.542;11.974;2023-07-20T00:00:09;10.82;;;8.48;;
16957;SDS011;8595;52.542;11.974;2023-07-20T00:02:39;9.73;;;8.10;;
16957;SDS011;8595;52.542;11.974;2023-07-20T00:05:06;15.27;;;8.55;;
16957;SDS011;8595;52.542;11.974;2023-07-20T00:07:33;9.38;;;7.53;;
16957;SDS011;8595;52.542;11.974;2023-07-20T00:09:59;15.13;;;8.00;;
16957;SDS011;8595;52.542;11.974;2023-07-20T00:12:26;12.05;;;7.30;;
16957;SDS011;8595;52.542;11.974;2023-07-20T00:14:55;12.68;;;9.38;;
16957;SDS011;8595;52.542;11.974;2023-07-20T00:17:22;10.85;;;8.07;;
16957;SDS011;8595;52.542;11.974;2023-07-20T00:19:49;9.85;;;8.73;;
16957;SDS011;8595;52.542;11.974;2023-07-20T00:22:16;10.25;;;7.93;;
16957;SDS011;8595;52.542;11.974;2023-07-20T00:24:43;12.18;;;8.63;;
16957;SDS011;8595;52.542;11.974;2023-07-20T00:27:10;9.23;;;8.15;;
16957;SDS011;8595;52.542;11.974;2023-07-20T00:29:36;11.13;;;8.40;;
16957;SDS011;8595;52.542;11.974;2023-07-20T00:32:05;15.00;;;9.40;;
16957;SDS011;8595;52.542;11.974;2023-07-20T00:34:32;10.68;;;8.43;;
16957;SDS011;8595;52.542;11.974;2023-07-20T00:37:00;15.35;;;9.90;;
16957;SDS011;8595;52.542;11.974;2023-07-20T00:39:26;12.07;;;9.20;;
16957;SDS011;8595;52.542;11.974;2023-07-20T00:41:53;10.07;;;8.07;;
16957;SDS011;8595;52.542;11.974;2023-07-20T00:44:20;13.90;;;10.73;;
16957;SDS011;8595;52.542;11.974;2023-07-20T00:46:47;10.55;;;9.55;;
16957;SDS011;8595;52.542;11.974;2023-07-20T00:49:15;13.30;;;9.85;;
16957;SDS011;8595;52.542;11.974;2023-07-20T00:51:46;11.00;;;8.98;;
16957;SDS011;8595;52.542;11.974;2023-07-20T00:54:14;13.95;;;8.98;;
16957;SDS011;8595;52.542;11.974;2023-07-20T00:56:41;13.02;;;9.95;;
16957;SDS011;8595;52.542;11.974;2023-07-20T00:59:08;13.38;;;9.90;;
16957;SDS011;8595;52.542;11.974;2023-07-20T01:01:36;14.57;;;10.75;;
16957;SDS011;8595;52.542;11.974;2023-07-20T01:04:03;12.32;;;10.25;;
16957;SDS011;8595;52.542;11.974;2023-07-20T01:06:33;13.07;;;10.13;;
16957;SDS011;8595;52.542;11.974;2023-07-20T01:09:09;17.85;;;9.73;;
16957;SDS011;8595;52.542;11.974;2023-07-20T01:11:42;12.15;;;9.55;;
16957;SDS011;8595;52.542;11.974;2023-07-20T01:14:15;13.98;;;10.45;;
16957;SDS011;8595;52.542;11.974;2023-07-20T01:16:43;16.45;;;11.65;;
16957;SDS011;8595;52.542;11.974;2023-07-20T01:19:10;17.80;;;11.00;;
16957;SDS011;8595;52.542;11.974;2023-07-20T01:21:42;14.77;;;11.52;;
16957;SDS011;8595;52.542;11.974;2023-07-20T01:24:20;12.82;;;10.65;;
16957;SDS011;8595;52.542;11.974;2023-07-20T01:27:25;13.48;;;9.77;;
16957;SDS011;8595;52.542;11.974;2023-07-20T01:30:24;13.95;;;12.32;;
16957;SDS011;8595;52.542;11.974;2023-07-20T01:33:02;17.40;;;11.32;;
16957;SDS011;8595;52.542;11.974;2023-07-20T01:35:33;12.85;;;11.57;;
16957;SDS011;8595;52.542;11.974;2023-07-20T01:38:02;15.93;;;11.00;;
16957;SDS011;8595;52.542;11.974;2023-07-20T01:40:30;14.13;;;11.13;;
16957;SDS011;8595;52.542;11.974;2023-07-20T01:42:58;14.73;;;12.82;;
16957;SDS011;8595;52.542;11.974;2023-07-20T01:45:24;12.02;;;10.80;;
16957;SDS011;8595;52.542;11.974;2023-07-20T01:47:52;13.10;;;11.10;;
16957;SDS011;8595;52.542;11.974;2023-07-20T01:50:20;19.77;;;11.30;;
16957;SDS011;8595;52.542;11.974;2023-07-20T01:52:47;15.75;;;11.18;;
16957;SDS011;8595;52.542;11.974;2023-07-20T01:55:14;12.30;;;11.15;;
16957;SDS011;8595;52.542;11.974;2023-07-20T01:57:41;11.57;;;10.40;;
16957;SDS011;8595;52.542;11.974;2023-07-20T02:00:08;12.38;;;10.93;;
16957;SDS011;8595;52.542;11.974;2023-07-20T02:02:36;12.60;;;10.75;;
16957;SDS011;8595;52.542;11.974;2023-07-20T02:05:03;18.85;;;10.38;;
16957;SDS011;8595;52.542;11.974;2023-07-20T02:07:32;15.32;;;11.15;;
16957;SDS011;8595;52.542;11.974;2023-07-20T02:09:59;16.13;;;10.35;;
16957;SDS011;8595;52.542;11.974;2023-07-20T02:12:26;13.35;;;10.23;;
16957;SDS011;8595;52.542;11.974;2023-07-20T02:14:53;12.85;;;10.10;;
16957;SDS011;8595;52.542;11.974;2023-07-20T02:17:19;11.63;;;9.90;;
16957;SDS011;8595;52.542;11.974;2023-07-20T02:19:46;13.25;;;10.32;;
16957;SDS011;8595;52.542;11.974;2023-07-20T02:22:16;17.58;;;10.45;;
16957;SDS011;8595;52.542;11.974;2023-07-20T02:24:44;12.70;;;10.43;;
16957;SDS011;8595;52.542;11.974;2023-07-20T02:27:11;12.20;;;9.77;;
16957;SDS011;8595;52.542;11.974;2023-07-20T02:29:40;11.85;;;9.95;;
16957;SDS011;8595;52.542;11.974;2023-07-20T02:32:08;11.27;;;9.63;;
16957;SDS011;8595;52.542;11.974;2023-07-20T02:34:36;14.82;;;9.32;;
16957;SDS011;8595;52.542;11.974;2023-07-20T02:37:03;13.95;;;8.70;;
16957;SDS011;8595;52.542;11.974;2023-07-20T02:39:30;8.85;;;7.90;;
16957;SDS011;8595;52.542;11.974;2023-07-20T02:41:58;15.70;;;9.48;;
16957;SDS011;8595;52.542;11.974;2023-07-20T02:44:25;13.43;;;9.75;;
16957;SDS011;8595;52.542;11.974;2023-07-20T02:46:52;16.92;;;9.75;;
16957;SDS011;8595;52.542;11.974;2023-07-20T02:49:19;13.38;;;9.93;;
16957;SDS011;8595;52.542;11.974;2023-07-20T02:51:46;11.68;;;10.18;;
16957;SDS011;8595;52.542;11.974;2023-07-20T02:54:13;12.02;;;10.52;;
16957;SDS011;8595;52.542;11.974;2023-07-20T02:56:40;12.55;;;11.25;;
16957;SDS011;8595;52.542;11.974;2023-07-20T02:59:08;14.25;;;10.65;;
16957;SDS011;8595;52.542;11.974;2023-07-20T03:01:35;12.00;;;10.27;;
16957;SDS011;8595;52.542;11.974;2023-07-20T03:04:03;12.10;;;10.27;;
16957;SDS011;8595;52.542;11.974;2023-07-20T03:06:30;17.10;;;11.98;;
16957;SDS011;8595;52.542;11.974;2023-07-20T03:09:01;13.07;;;10.98;;
16957;SDS011;8595;52.542;11.974;2023-07-20T03:11:28;15.85;;;11.30;;
16957;SDS011;8595;52.542;11.974;2023-07-20T03:13:55;18.05;;;10.93;;
16957;SDS011;8595;52.542;11.974;2023-07-20T03:16:23;12.85;;;10.95;;
16957;SDS011;8595;52.542;11.974;2023-07-20T03:18:51;13.32;;;11.70;;
16957;SDS011;8595;52.542;11.974;2023-07-20T03:21:18;14.18;;;11.15;;
16957;SDS011;8595;52.542;11.974;2023-07-20T03:23:45;12.52;;;9.70;;
16957;SDS011;8595;52.542;11.974;2023-07-20T03:26:12;11.57;;;9.27;;
16957;SDS011;8595;52.542;11.974;2023-07-20T03:28:39;13.57;;;10.27;;
16957;SDS011;8595;52.542;11.974;2023-07-20T03:31:06;14.13;;;9.65;;
16957;SDS011;8595;52.542;11.974;2023-07-20T03:33:35;17.75;;;11.25;;
16957;SDS011;8595;52.542;11.974;2023-07-20T03:36:02;12.32;;;9.75;;
16957;SDS011;8595;52.542;11.974;2023-07-20T03:38:29;13.27;;;11.65;;
16957;SDS011;8595;52.542;11.974;2023-07-20T03:40:56;17.55;;;11.70;;
16957;SDS011;8595;52.542;11.974;2023-07-20T03:43:24;13.60;;;11.88;;
16957;SDS011;8595;52.542;11.974;2023-07-20T03:45:52;14.07;;;11.77;;
16957;SDS011;8595;52.542;11.974;2023-07-20T03:48:22;13.18;;;11.65;;
16957;SDS011;8595;52.542;11.974;2023-07-20T03:50:52;14.38;;;12.88;;
16957;SDS011;8595;52.542;11.974;2023-07-20T03:53:20;15.63;;;13.43;;
16957;SDS011;8595;52.542;11.974;2023-07-20T03:55:49;18.65;;;13.05;;
16957;SDS011;8595;52.542;11.974;2023-07-20T03:58:17;16.88;;;13.43;;
16957;SDS011;8595;52.542;11.974;2023-07-20T04:00:44;14.77;;;11.90;;
16957;SDS011;8595;52.542;11.974;2023-07-20T04:03:12;17.27;;;13.55;;
16957;SDS011;8595;52.542;11.974;2023-07-20T04:05:39;17.38;;;13.32;;
16957;SDS011;8595;52.542;11.974;2023-07-20T04:08:07;16.55;;;13.75;;
16957;SDS011;8595;52.542;11.974;2023-07-20T04:10:36;17.75;;;12.80;;
16957;SDS011;8595;52.542;11.974;2023-07-20T04:13:03;16.77;;;13.60;;
16957;SDS011;8595;52.542;11.974;2023-07-20T04:15:30;15.52;;;13.68;;
16957;SDS011;8595;52.542;11.974;2023-07-20T04:17:56;13.85;;;12.45;;
16957;SDS011;8595;52.542;11.974;2023-07-20T04:20:23;14.05;;;12.65;;
16957;SDS011;8595;52.542;11.974;2023-07-20T04:22:50;14.05;;;12.55;;
16957;SDS011;8595;52.542;11.974;2023-07-20T04:25:18;16.90;;;13.18;;
16957;SDS011;8595;52.542;11.974;2023-07-20T04:27:45;12.80;;;11.52;;
16957;SDS011;8595;52.542;11.974;2023-07-20T04:30:12;23.42;;;11.77;;
16957;SDS011;8595;52.542;11.974;2023-07-20T04:32:40;15.73;;;10.63;;
16957;SDS011;8595;52.542;11.974;2023-07-20T04:35:09;11.52;;;10.05;;
16957;SDS011;8595;52.542;11.974;2023-07-20T04:37:36;12.30;;;9.55;;
16957;SDS011;8595;52.542;11.974;2023-07-20T04:40:03;15.02;;;10.45;;
16957;SDS011;8595;52.542;11.974;2023-07-20T04:42:32;13.02;;;10.23;;
16957;SDS011;8595;52.542;11.974;2023-07-20T04:44:59;18.05;;;11.25;;
16957;SDS011;8595;52.542;11.974;2023-07-20T04:47:26;15.80;;;11.10;;
16957;SDS011;8595;52.542;11.974;2023-07-20T04:49:52;11.52;;;9.77;;
16957;SDS011;8595;52.542;11.974;2023-07-20T04:52:19;14.05;;;9.10;;
16957;SDS011;8595;52.542;11.974;2023-07-20T04:54:46;11.20;;;8.35;;
16957;SDS011;8595;52.542;11.974;2023-07-20T04:57:13;11.40;;;9.10;;
16957;SDS011;8595;52.542;11.974;2023-07-20T04:59:41;10.85;;;9.77;;
16957;SDS011;8595;52.542;11.974;2023-07-20T05:02:08;14.82;;;8.68;;
16957;SDS011;8595;52.542;11.974;2023-07-20T05:04:35;10.35;;;8.00;;
16957;SDS011;8595;52.542;11.974;2023-07-20T05:07:02;10.48;;;8.75;;
16957;SDS011;8595;52.542;11.974;2023-07-20T05:09:29;10.00;;;8.18;;
16957;SDS011;8595;52.542;11.974;2023-07-20T05:11:56;12.38;;;9.00;;
16957;SDS011;8595;52.542;11.974;2023-07-20T05:14:23;9.88;;;8.30;;
16957;SDS011;8595;52.542;11.974;2023-07-20T05:16:51;11.38;;;7.82;;
16957;SDS011;8595;52.542;11.974;2023-07-20T05:19:17;10.18;;;7.90;;
16957;SDS011;8595;52.542;11.974;2023-07-20T05:21:44;10.10;;;7.82;;
16957;SDS011;8595;52.542;11.974;2023-07-20T05:24:11;8.25;;;7.35;;
16957;SDS011;8595;52.542;11.974;2023-07-20T05:26:38;9.48;;;8.43;;
16957;SDS011;8595;52.542;11.974;2023-07-20T05:29:05;9.45;;;7.88;;
16957;SDS011;8595;52.542;11.974;2023-07-20T05:31:32;10.20;;;7.95;;
16957;SDS011;8595;52.542;11.974;2023-07-20T05:34:03;12.02;;;7.72;;
16957;SDS011;8595;52.542;11.974;2023-07-20T05:36:30;10.38;;;7.63;;
16957;SDS011;8595;52.542;11.974;2023-07-20T05:38:57;11.82;;;8.27;;
16957;SDS011;8595;52.542;11.974;2023-07-20T05:41:24;10.55;;;8.20;;
16957;SDS011;8595;52.542;11.974;2023-07-20T05:43:51;9.18;;;7.60;;
16957;SDS011;8595;52.542;11.974;2023-07-20T05:46:17;7.97;;;7.18;;
16957;SDS011;8595;52.542;11.974;2023-07-20T05:48:44;9.45;;;6.97;;
16957;SDS011;8595;52.542;11.974;2023-07-20T05:51:12;9.98;;;7.60;;
16957;SDS011;8595;52.542;11.974;2023-07-20T05:53:39;13.43;;;7.22;;
16957;SDS011;8595;52.542;11.974;2023-07-20T05:56:06;7.88;;;7.07;;
16957;SDS011;8595;52.542;11.974;2023-07-20T05:58:35;8.35;;;6.50;;
16957;SDS011;8595;52.542;11.974;2023-07-20T06:01:03;6.00;;;5.40;;
16957;SDS011;8595;52.542;11.974;2023-07-20T06:03:31;6.05;;;5.22;;
16957;SDS011;8595;52.542;11.974;2023-07-20T06:05:59;8.90;;;5.35;;
16957;SDS011;8595;52.542;11.974;2023-07-20T06:08:28;12.05;;;7.13;;
16957;SDS011;8595;52.542;11.974;2023-07-20T06:10:55;5.45;;;4.95;;
16957;SDS011;8595;52.542;11.974;2023-07-20T06:13:21;8.07;;;5.80;;
16957;SDS011;8595;52.542;11.974;2023-07-20T06:15:49;8.82;;;4.88;;
16957;SDS011;8595;52.542;11.974;2023-07-20T06:18:16;6.22;;;4.35;;
16957;SDS011;8595;52.542;11.974;2023-07-20T06:20:42;6.32;;;4.20;;
16957;SDS011;8595;52.542;11.974;2023-07-20T06:23:15;10.75;;;5.15;;
16957;SDS011;8595;52.542;11.974;2023-07-20T06:25:43;7.45;;;4.95;;
16957;SDS011;8595;52.542;11.974;2023-07-20T06:28:10;7.70;;;4.70;;
16957;SDS011;8595;52.542;11.974;2023-07-20T06:30:37;5.20;;;4.03;;
16957;SDS011;8595;52.542;11.974;2023-07-20T06:33:04;4.65;;;3.75;;
16957;SDS011;8595;52.542;11.974;2023-07-20T06:35:31;4.65;;;3.40;;
16957;SDS011;8595;52.542;11.974;2023-07-20T06:37:58;4.97;;;3.65;;
16957;SDS011;8595;52.542;11.974;2023-07-20T06:40:25;6.57;;;3.35;;
16957;SDS011;8595;52.542;11.974;2023-07-20T06:42:53;4.38;;;3.33;;
16957;SDS011;8595;52.542;11.974;2023-07-20T06:45:20;5.25;;;3.88;;
16957;SDS011;8595;52.542;11.974;2023-07-20T06:47:47;3.63;;;3.00;;
16957;SDS011;8595;52.542;11.974;2023-07-20T06:50:14;5.00;;;3.10;;
16957;SDS011;8595;52.542;11.974;2023-07-20T06:52:41;4.97;;;3.15;;
16957;SDS011;8595;52.542;11.974;2023-07-20T06:55:08;4.18;;;3.17;;
16957;SDS011;8595;52.542;11.974;2023-07-20T06:57:35;3.13;;;2.80;;
16957;SDS011;8595;52.542;11.974;2023-07-20T07:00:04;3.50;;;3.20;;
16957;SDS011;8595;52.542;11.974;2023-07-20T07:02:32;4.25;;;3.28;;
16957;SDS011;8595;52.542;11.974;2023-07-20T07:04:59;3.63;;;2.50;;
16957;SDS011;8595;52.542;11.974;2023-07-20T07:07:26;3.15;;;2.42;;
16957;SDS011;8595;52.542;11.974;2023-07-20T07:09:53;3.38;;;2.63;;
16957;SDS011;8595;52.542;11.974;2023-07-20T07:12:20;5.60;;;2.95;;
16957;SDS011;8595;52.542;11.974;2023-07-20T07:14:47;5.00;;;3.33;;
16957;SDS011;8595;52.542;11.974;2023-07-20T07:17:15;4.47;;;2.88;;
16957;SDS011;8595;52.542;11.974;2023-07-20T07:19:42;4.45;;;3.50;;
16957;SDS011;8595;52.542;11.974;2023-07-20T07:22:09;4.35;;;3.40;;
16957;SDS011;8595;52.542;11.974;2023-07-20T07:24:36;3.38;;;3.08;;
16957;SDS011;8595;52.542;11.974;2023-07-20T07:27:05;2.70;;;2.50;;
16957;SDS011;8595;52.542;11.974;2023-07-20T07:29:32;3.33;;;2.97;;
16957;SDS011;8595;52.542;11.974;2023-07-20T07:32:00;3.67;;;2.97;;
16957;SDS011;8595;52.542;11.974;2023-07-20T07:34:29;4.05;;;3.28;;
16957;SDS011;8595;52.542;11.974;2023-07-20T07:36:59;3.08;;;2.70;;
16957;SDS011;8595;52.542;11.974;2023-07-20T07:39:26;3.45;;;2.38;;
16957;SDS011;8595;52.542;11.974;2023-07-20T07:41:55;2.65;;;2.10;;
16957;SDS011;8595;52.542;11.974;2023-07-20T07:44:22;4.10;;;3.00;;
16957;SDS011;8595;52.542;11.974;2023-07-20T07:46:49;3.25;;;2.50;;
16957;SDS011;8595;52.542;11.974;2023-07-20T07:49:16;2.38;;;1.88;;
16957;SDS011;8595;52.542;11.974;2023-07-20T07:51:45;4.28;;;2.28;;
16957;SDS011;8595;52.542;11.974;2023-07-20T07:54:12;2.75;;;2.30;;
16957;SDS011;8595;52.542;11.974;2023-07-20T07:56:39;3.05;;;2.20;;
16957;SDS011;8595;52.542;11.974;2023-07-20T07:59:06;5.35;;;2.10;;
16957;SDS011;8595;52.542;11.974;2023-07-20T08:01:32;2.50;;;2.30;;
16957;SDS011;8595;52.542;11.974;2023-07-20T08:03:59;2.97;;;1.98;;
16957;SDS011;8595;52.542;11.974;2023-07-20T08:06:26;3.25;;;2.50;;
16957;SDS011;8595;52.542;11.974;2023-07-20T08:08:55;2.50;;;2.22;;
16957;SDS011;8595;52.542;11.974;2023-07-20T08:11:22;2.60;;;2.40;;
16957;SDS011;8595;52.542;11.974;2023-07-20T08:13:49;6.15;;;2.67;;
16957;SDS011;8595;52.542;11.974;2023-07-20T08:16:16;3.22;;;2.72;;
16957;SDS011;8595;52.542;11.974;2023-07-20T08:18:43;2.50;;;2.30;;
16957;SDS011;8595;52.542;11.974;2023-07-20T08:21:10;2.35;;;1.73;;
16957;SDS011;8595;52.542;11.974;2023-07-20T08:23:37;2.20;;;2.00;;
16957;SDS011;8595;52.542;11.974;2023-07-20T08:26:06;4.05;;;2.17;;
16957;SDS011;8595;52.542;11.974;2023-07-20T08:28:34;2.28;;;1.90;;
16957;SDS011;8595;52.542;11.974;2023-07-20T08:31:01;4.55;;;2.00;;
16957;SDS011;8595;52.542;11.974;2023-07-20T08:33:28;5.35;;;2.00;;
16957;SDS011;8595;52.542;11.974;2023-07-20T08:35:58;3.60;;;2.03;;
16957;SDS011;8595;52.542;11.974;2023-07-20T08:38:26;3.63;;;2.22;;
16957;SDS011;8595;52.542;11.974;2023-07-20T08:40:53;2.20;;;2.00;;
16957;SDS011;8595;52.542;11.974;2023-07-20T08:43:22;3.45;;;2.20;;
16957;SDS011;8595;52.542;11.974;2023-07-20T08:45:51;6.32;;;2.03;;
16957;SDS011;8595;52.542;11.974;2023-07-20T08:48:20;2.78;;;1.80;;
16957;SDS011;8595;52.542;11.974;2023-07-20T08:50:47;4.43;;;2.30;;
16957;SDS011;8595;52.542;11.974;2023-07-20T08:53:16;2.35;;;2.03;;
16957;SDS011;8595;52.542;11.974;2023-07-20T08:55:44;2.30;;;1.73;;
16957;SDS011;8595;52.542;11.974;2023-07-20T08:58:12;2.17;;;2.00;;
16957;SDS011;8595;52.542;11.974;2023-07-20T09:00:41;4.25;;;2.00;;
16957;SDS011;8595;52.542;11.974;2023-07-20T09:03:08;2.20;;;2.00;;
16957;SDS011;8595;52.542;11.974;2023-07-20T09:05:36;1.83;;;1.70;;
16957;SDS011;8595;52.542;11.974;2023-07-20T09:08:04;2.58;;;1.65;;
16957;SDS011;8595;52.542;11.974;2023-07-20T09:10:31;3.78;;;1.67;;
16957;SDS011;8595;52.542;11.974;2023-07-20T09:12:58;1.88;;;1.33;;
16957;SDS011;8595;52.542;11.974;2023-07-20T09:15:25;1.08;;;0.95;;
16957;SDS011;8595;52.542;11.974;2023-07-20T09:17:53;1.75;;;1.00;;
16957;SDS011;8595;52.542;11.974;2023-07-20T09:20:20;0.80;;;0.80;;
16957;SDS011;8595;52.542;11.974;2023-07-20T09:22:47;0.88;;;0.80;;
16957;SDS011;8595;52.542;11.974;2023-07-20T09:25:16;1.95;;;1.00;;
16957;SDS011;8595;52.542;11.974;2023-07-20T09:27:44;4.78;;;0.70;;
16957;SDS011;8595;52.542;11.974;2023-07-20T09:30:14;0.63;;;0.63;;
16957;SDS011;8595;52.542;11.974;2023-07-20T09:32:42;0.60;;;0.60;;
16957;SDS011;8595;52.542;11.974;2023-07-20T09:35:15;0.60;;;0.60;;
16957;SDS011;8595;52.542;11.974;2023-07-20T09:37:46;1.88;;;0.57;;
16957;SDS011;8595;52.542;11.974;2023-07-20T09:40:17;1.25;;;0.80;;
16957;SDS011;8595;52.542;11.974;2023-07-20T09:42:44;1.63;;;0.80;;
16957;SDS011;8595;52.542;11.974;2023-07-20T09:45:11;2.92;;;1.00;;
16957;SDS011;8595;52.542;11.974;2023-07-20T09:47:38;1.58;;;0.90;;
16957;SDS011;8595;52.542;11.974;2023-07-20T09:50:06;1.80;;;0.80;;
16957;SDS011;8595;52.542;11.974;2023-07-20T09:52:38;1.00;;;0.80;;
16957;SDS011;8595;52.542;11.974;2023-07-20T09:55:06;1.17;;;0.70;;
16957;SDS011;8595;52.542;11.974;2023-07-20T09:57:34;1.70;;;1.00;;
16957;SDS011;8595;52.542;11.974;2023-07-20T10:00:02;3.60;;;1.13;;
16957;SDS011;8595;52.542;11.974;2023-07-20T10:02:36;4.60;;;1.05;;
16957;SDS011;8595;52.542;11.974;2023-07-20T10:05:08;1.77;;;0.70;;
16957;SDS011;8595;52.542;11.974;2023-07-20T10:07:42;0.77;;;0.77;;
16957;SDS011;8595;52.542;11.974;2023-07-20T10:10:11;2.58;;;0.80;;
16957;SDS011;8595;52.542;11.974;2023-07-20T10:12:40;4.38;;;0.98;;
16957;SDS011;8595;52.542;11.974;2023-07-20T10:15:10;0.82;;;0.75;;
16957;SDS011;8595;52.542;11.974;2023-07-20T10:17:40;1.30;;;0.60;;
16957;SDS011;8595;52.542;11.974;2023-07-20T10:20:26;0.60;;;0.60;;
16957;SDS011;8595;52.542;11.974;2023-07-20T10:22:55;1.10;;;0.85;;
16957;SDS011;8595;52.542;11.974;2023-07-20T10:25:23;0.70;;;0.70;;
16957;SDS011;8595;52.542;11.974;2023-07-20T10:27:51;1.38;;;0.70;;
16957;SDS011;8595;52.542;11.974;2023-07-20T10:30:18;0.98;;;0.60;;
16957;SDS011;8595;52.542;11.974;2023-07-20T10:32:45;0.65;;;0.65;;
16957;SDS011;8595;52.542;11.974;2023-07-20T10:35:13;2.20;;;0.70;;
16957;SDS011;8595;52.542;11.974;2023-07-20T10:37:48;2.35;;;0.60;;
16957;SDS011;8595;52.542;11.974;2023-07-20T10:40:25;0.68;;;0.60;;
16957;SDS011;8595;52.542;11.974;2023-07-20T10:43:01;0.85;;;0.50;;
16957;SDS011;8595;52.542;11.974;2023-07-20T10:45:39;3.55;;;0.68;;
16957;SDS011;8595;52.542;11.974;2023-07-20T10:48:12;0.73;;;0.70;;
16957;SDS011;8595;52.542;11.974;2023-07-20T10:50:41;1.30;;;0.80;;
16957;SDS011;8595;52.542;11.974;2023-07-20T10:53:12;1.75;;;0.82;;
16957;SDS011;8595;52.542;11.974;2023-07-20T10:55:42;0.95;;;0.60;;
16957;SDS011;8595;52.542;11.974;2023-07-20T10:58:12;2.95;;;0.50;;
16957;SDS011;8595;52.542;11.974;2023-07-20T11:00:56;0.63;;;0.60;;
16957;SDS011;8595;52.542;11.974;2023-07-20T11:03:31;0.95;;;0.50;;
16957;SDS011;8595;52.542;11.974;2023-07-20T11:05:59;0.60;;;0.60;;
16957;SDS011;8595;52.542;11.974;2023-07-20T11:08:42;1.95;;;0.90;;
16957;SDS011;8595;52.542;11.974;2023-07-20T11:11:23;0.85;;;0.60;;
16957;SDS011;8595;52.542;11.974;2023-07-20T11:13:55;0.40;;;0.40;;
16957;SDS011;8595;52.542;11.974;2023-07-20T11:16:33;2.20;;;0.47;;
16957;SDS011;8595;52.542;11.974;2023-07-20T11:19:01;1.20;;;0.50;;
16957;SDS011;8595;52.542;11.974;2023-07-20T11:21:28;0.50;;;0.50;;
16957;SDS011;8595;52.542;11.974;2023-07-20T11:23:57;0.82;;;0.63;;
16957;SDS011;8595;52.542;11.974;2023-07-20T11:26:25;1.15;;;0.60;;
16957;SDS011;8595;52.542;11.974;2023-07-20T11:28:52;0.40;;;0.40;;
16957;SDS011;8595;52.542;11.974;2023-07-20T11:31:19;3.38;;;0.80;;
16957;SDS011;8595;52.542;11.974;2023-07-20T11:33:46;0.60;;;0.60;;
16957;SDS011;8595;52.542;11.974;2023-07-20T11:36:13;0.85;;;0.60;;
16957;SDS011;8595;52.542;11.974;2023-07-20T11:38:41;1.50;;;0.50;;
16957;SDS011;8595;52.542;11.974;2023-07-20T11:41:09;3.42;;;0.90;;
16957;SDS011;8595;52.542;11.974;2023-07-20T11:43:39;1.42;;;0.60;;
16957;SDS011;8595;52.542;11.974;2023-07-20T11:46:11;1.20;;;0.60;;
16957;SDS011;8595;52.542;11.974;2023-07-20T11:48:38;0.50;;;0.45;;
16957;SDS011;8595;52.542;11.974;2023-07-20T11:51:05;0.60;;;0.60;;
16957;SDS011;8595;52.542;11.974;2023-07-20T11:53:32;2.35;;;0.60;;
16957;SDS011;8595;52.542;11.974;2023-07-20T11:55:59;3.45;;;0.70;;
16957;SDS011;8595;52.542;11.974;2023-07-20T11:58:27;0.95;;;0.82;;
16957;SDS011;8595;52.542;11.974;2023-07-20T12:00:55;1.95;;;0.85;;
16957;SDS011;8595;52.542;11.974;2023-07-20T12:03:23;1.58;;;0.85;;
16957;SDS011;8595;52.542;11.974;2023-07-20T12:05:49;0.68;;;0.68;;
16957;SDS011;8595;52.542;11.974;2023-07-20T12:08:17;1.85;;;0.90;;
16957;SDS011;8595;52.542;11.974;2023-07-20T12:10:44;0.80;;;0.73;;
16957;SDS011;8595;52.542;11.974;2023-07-20T12:13:11;1.42;;;0.98;;
16957;SDS011;8595;52.542;11.974;2023-07-20T12:15:39;0.90;;;0.70;;
16957;SDS011;8595;52.542;11.974;2023-07-20T12:18:07;2.22;;;0.90;;
16957;SDS011;8595;52.542;11.974;2023-07-20T12:20:34;0.82;;;0.82;;
16957;SDS011;8595;52.542;11.974;2023-07-20T12:23:04;1.33;;;0.88;;
16957;SDS011;8595;52.542;11.974;2023-07-20T12:25:37;0.60;;;0.60;;
16957;SDS011;8595;52.542;11.974;2023-07-20T12:28:06;2.80;;;0.60;;
16957;SDS011;8595;52.542;11.974;2023-07-20T12:30:34;0.80;;;0.80;;
16957;SDS011;8595;52.542;11.974;2023-07-20T12:33:02;0.73;;;0.50;;
16957;SDS011;8595;52.542;11.974;2023-07-20T12:35:31;1.92;;;1.05;;
16957;SDS011;8595;52.542;11.974;2023-07-20T12:37:58;3.70;;;0.73;;
16957;SDS011;8595;52.542;11.974;2023-07-20T12:40:25;2.22;;;0.73;;
16957;SDS011;8595;52.542;11.974;2023-07-20T12:42:52;0.60;;;0.60;;
16957;SDS011;8595;52.542;11.974;2023-07-20T12:45:19;4.63;;;0.70;;
16957;SDS011;8595;52.542;11.974;2023-07-20T12:47:47;4.90;;;0.93;;
16957;SDS011;8595;52.542;11.974;2023-07-20T12:50:14;0.88;;;0.65;;
16957;SDS011;8595;52.542;11.974;2023-07-20T12:52:42;3.55;;;0.80;;
16957;SDS011;8595;52.542;11.974;2023-07-20T12:55:09;0.80;;;0.70;;
16957;SDS011;8595;52.542;11.974;2023-07-20T12:57:37;1.08;;;0.77;;
16957;SDS011;8595;52.542;11.974;2023-07-20T13:00:05;3.10;;;0.90;;
16957;SDS011;8595;52.542;11.974;2023-07-20T13:02:35;4.75;;;0.90;;
16957;SDS011;8595;52.542;11.974;2023-07-20T13:05:02;1.50;;;1.00;;
16957;SDS011;8595;52.542;11.974;2023-07-20T13:07:29;0.93;;;0.85;;
16957;SDS011;8595;52.542;11.974;2023-07-20T13:09:58;1.92;;;0.90;;
16957;SDS011;8595;52.542;11.974;2023-07-20T13:12:26;3.78;;;0.90;;
16957;SDS011;8595;52.542;11.974;2023-07-20T13:14:55;1.02;;;0.88;;
16957;SDS011;8595;52.542;11.974;2023-07-20T13:17:22;2.05;;;1.15;;
16957;SDS011;8595;52.542;11.974;2023-07-20T13:19:49;1.95;;;1.00;;
16957;SDS011;8595;52.542;11.974;2023-07-20T13:22:16;1.10;;;0.80;;
16957;SDS011;8595;52.542;11.974;2023-07-20T13:24:44;2.30;;;1.00;;
16957;SDS011;8595;52.542;11.974;2023-07-20T13:27:13;1.60;;;1.20;;
16957;SDS011;8595;52.542;11.974;2023-07-20T13:29:41;2.53;;;0.88;;
16957;SDS011;8595;52.542;11.974;2023-07-20T13:32:08;1.00;;;0.85;;
16957;SDS011;8595;52.542;11.974;2023-07-20T13:34:35;1.52;;;1.00;;
16957;SDS011;8595;52.542;11.974;2023-07-20T13:37:02;0.68;;;0.57;;
16957;SDS011;8595;52.542;11.974;2023-07-20T13:39:30;1.85;;;0.77;;
16957;SDS011;8595;52.542;11.974;2023-07-20T13:41:56;3.15;;;0.77;;
16957;SDS011;8595;52.542;11.974;2023-07-20T13:44:25;1.67;;;0.80;;
16957;SDS011;8595;52.542;11.974;2023-07-20T13:46:52;1.40;;;0.57;;
16957;SDS011;8595;52.542;11.974;2023-07-20T13:49:19;1.17;;;0.80;;
16957;SDS011;8595;52.542;11.974;2023-07-20T13:51:45;0.88;;;0.70;;
16957;SDS011;8595;52.542;11.974;2023-07-20T13:54:12;0.80;;;0.80;;
16957;SDS011;8595;52.542;11.974;2023-07-20T13:56:39;3.90;;;0.90;;
16957;SDS011;8595;52.542;11.974;2023-07-20T13:59:06;1.75;;;0.80;;
16957;SDS011;8595;52.542;11.974;2023-07-20T14:01:34;1.55;;;0.70;;
16957;SDS011;8595;52.542;11.974;2023-07-20T14:04:01;5.90;;;0.95;;
16957;SDS011;8595;52.542;11.974;2023-07-20T14:06:29;2.10;;;0.70;;
16957;SDS011;8595;52.542;11.974;2023-07-20T14:08:58;1.65;;;0.80;;
16957;SDS011;8595;52.542;11.974;2023-07-20T14:11:25;0.80;;;0.80;;
16957;SDS011;8595;52.542;11.974;2023-07-20T14:13:52;3.17;;;1.10;;
16957;SDS011;8595;52.542;11.974;2023-07-20T14:16:20;2.05;;;1.00;;
16957;SDS011;8595;52.542;11.974;2023-07-20T14:18:49;2.75;;;0.90;;
16957;SDS011;8595;52.542;11.974;2023-07-20T14:21:16;1.88;;;0.82;;
16957;SDS011;8595;52.542;11.974;2023-07-20T14:23:45;4.10;;;1.00;;
16957;SDS011;8595;52.542;11.974;2023-07-20T14:26:13;3.50;;;0.82;;
16957;SDS011;8595;52.542;11.974;2023-07-20T14:28:40;3.88;;;1.23;;
16957;SDS011;8595;52.542;11.974;2023-07-20T14:31:07;1.40;;;0.80;;
16957;SDS011;8595;52.542;11.974;2023-07-20T14:33:34;3.17;;;0.80;;
16957;SDS011;8595;52.542;11.974;2023-07-20T14:36:02;1.73;;;0.85;;
16957;SDS011;8595;52.542;11.974;2023-07-20T14:38:30;3.95;;;1.05;;
16957;SDS011;8595;52.542;11.974;2023-07-20T14:40:57;2.38;;;1.20;;
16957;SDS011;8595;52.542;11.974;2023-07-20T14:43:24;2.47;;;0.93;;
16957;SDS011;8595;52.542;11.974;2023-07-20T14:45:51;1.77;;;1.00;;